createdAt,value
2019-01-04T00:01:33.394Z,11.70
2019-01-04T00:02:32.876Z,10.20
2019-01-04T00:04:25.041Z,12.00
2019-01-04T00:05:25.080Z,11.30
2019-01-04T00:07:17.233Z,12.20
2019-01-04T00:08:17.002Z,12.80
2019-01-04T00:10:09.340Z,10.30
2019-01-04T00:11:09.373Z,11.50
2019-01-04T00:13:01.904Z,10.90
2019-01-04T00:14:01.571Z,11.70
2019-01-04T00:15:54.107Z,11.80
2019-01-04T00:16:54.099Z,11.10
2019-01-04T00:18:46.673Z,11.10
2019-01-04T00:19:46.463Z,13.80
2019-01-04T00:21:38.411Z,10.10
2019-01-04T00:22:38.772Z,11.30
2019-01-04T00:24:30.944Z,12.60
2019-01-04T00:25:30.740Z,11.70
2019-01-04T00:27:23.405Z,12.00
2019-01-04T00:28:23.075Z,12.80
2019-01-04T00:30:15.597Z,10.90
2019-01-04T00:31:15.754Z,12.30
2019-01-04T00:33:07.710Z,13.10
2019-01-04T00:34:07.711Z,14.10
2019-01-04T00:36:00.629Z,13.40
2019-01-04T00:37:00.372Z,13.30
2019-01-04T00:38:52.755Z,12.90
2019-01-04T00:39:52.738Z,12.70
2019-01-04T00:41:44.937Z,14.50
2019-01-04T00:42:45.012Z,13.30
2019-01-04T00:44:37.388Z,12.90
2019-01-04T00:45:37.012Z,13.30
2019-01-04T00:47:29.469Z,16.10
2019-01-04T00:48:28.858Z,14.70
2019-01-04T00:50:21.196Z,15.60
2019-01-04T00:51:21.192Z,16.00
2019-01-04T00:53:13.746Z,13.50
2019-01-04T00:54:13.539Z,13.40
2019-01-04T00:56:06.203Z,14.90
2019-01-04T00:57:05.868Z,15.30
2019-01-04T00:58:58.437Z,14.80
2019-01-04T00:59:58.157Z,14.70
2019-01-04T01:01:50.514Z,15.30
2019-01-04T01:02:50.527Z,16.50
2019-01-04T01:04:43.052Z,17.20
2019-01-04T01:05:43.166Z,16.20
2019-01-04T01:07:35.516Z,15.10
2019-01-04T01:08:35.180Z,15.30
2019-01-04T01:10:27.696Z,16.10
2019-01-04T01:11:27.465Z,15.10
2019-01-04T01:13:20.929Z,16.50
2019-01-04T01:14:21.010Z,17.00
2019-01-04T01:16:13.167Z,16.00
2019-01-04T01:17:12.936Z,16.70
2019-01-04T01:19:05.673Z,17.20
2019-01-04T01:20:05.262Z,17.40
2019-01-04T01:21:57.816Z,16.20
2019-01-04T01:22:57.608Z,14.80
2019-01-04T01:24:50.284Z,16.00
2019-01-04T01:25:50.298Z,16.80
2019-01-04T01:27:42.505Z,18.10
2019-01-04T01:28:42.255Z,16.80
2019-01-04T01:30:34.973Z,17.00
2019-01-04T01:31:34.968Z,18.10
2019-01-04T01:33:27.516Z,16.50
2019-01-04T01:34:27.240Z,18.50
2019-01-04T01:38:16.608Z,17.70
2019-01-04T01:38:50.289Z,15.80
2019-01-04T01:40:42.625Z,17.40
2019-01-04T01:41:42.657Z,16.50
2019-01-04T01:43:35.584Z,18.40
2019-01-04T01:44:34.953Z,19.40
2019-01-04T01:46:27.655Z,18.10
2019-01-04T01:47:27.672Z,16.50
2019-01-04T01:49:19.846Z,17.10
2019-01-04T01:50:19.978Z,18.60
2019-01-04T01:52:11.930Z,18.50
2019-01-04T01:53:12.302Z,19.50
2019-01-04T01:55:04.547Z,17.50
2019-01-04T01:56:04.590Z,18.90
2019-01-04T01:57:56.581Z,20.40
2019-01-04T01:58:56.932Z,19.40
2019-01-04T02:00:49.539Z,21.80
2019-01-04T02:01:49.242Z,20.00
2019-01-04T02:03:41.607Z,22.00
2019-01-04T02:04:41.269Z,19.00
2019-01-04T02:06:34.178Z,21.30
2019-01-04T02:07:33.915Z,23.10
2019-01-04T02:09:26.287Z,19.80
2019-01-04T02:10:26.271Z,19.70
2019-01-04T02:12:18.776Z,20.60
2019-01-04T02:13:18.222Z,19.10
2019-01-04T02:15:10.576Z,17.90
2019-01-04T02:16:10.921Z,19.90
2019-01-04T02:18:03.438Z,18.30
2019-01-04T02:19:03.212Z,20.40
2019-01-04T02:20:55.539Z,21.30
2019-01-04T02:21:55.208Z,20.80
2019-01-04T02:23:48.061Z,20.30
2019-01-04T02:24:47.529Z,18.40
2019-01-04T02:26:39.850Z,19.80
2019-01-04T02:27:40.258Z,21.80
2019-01-04T02:29:32.749Z,21.00
2019-01-04T02:30:32.557Z,22.80
2019-01-04T02:32:24.542Z,23.10
2019-01-04T02:33:24.848Z,21.40
2019-01-04T02:35:16.566Z,25.00
2019-01-04T02:36:16.385Z,25.30
2019-01-04T02:38:09.070Z,23.50
2019-01-04T02:39:09.023Z,24.70
2019-01-04T02:41:01.275Z,24.70
2019-01-04T02:42:01.025Z,24.30
2019-01-04T02:43:53.379Z,26.60
2019-01-04T02:44:53.311Z,27.20
2019-01-04T02:46:46.216Z,31.90
2019-01-04T02:47:46.043Z,31.90
2019-01-04T02:49:37.992Z,28.50
2019-01-04T02:50:38.342Z,28.30
2019-01-04T02:52:30.854Z,28.70
2019-01-04T02:53:30.343Z,31.00
2019-01-04T02:55:22.654Z,33.30
2019-01-04T02:56:23.037Z,37.50
2019-01-04T02:58:15.196Z,34.10
2019-01-04T02:59:14.985Z,39.50
2019-01-04T03:01:07.663Z,46.10
2019-01-04T03:02:07.377Z,40.50
2019-01-04T03:04:00.176Z,48.90
2019-01-04T03:04:59.939Z,53.80
2019-01-04T03:08:23.349Z,62.90
2019-01-04T03:09:23.352Z,65.00
2019-01-04T03:11:15.585Z,61.80
2019-01-04T03:12:15.322Z,58.00
2019-01-04T03:14:08.650Z,61.20
2019-01-04T03:15:08.552Z,67.40
2019-01-04T03:17:00.788Z,68.00
2019-01-04T03:18:00.605Z,65.80
2019-01-04T03:19:52.886Z,62.60
2019-01-04T03:20:53.235Z,67.00
2019-01-04T03:22:45.785Z,67.20
2019-01-04T03:23:45.213Z,68.60
2019-01-04T03:25:37.908Z,75.00
2019-01-04T03:26:37.925Z,74.20
2019-01-04T03:28:30.217Z,69.00
2019-01-04T03:29:29.897Z,69.70
2019-01-04T03:31:22.593Z,71.00
2019-01-04T03:32:22.574Z,70.00
2019-01-04T03:34:14.772Z,73.10
2019-01-04T03:35:14.853Z,68.50
2019-01-04T03:38:37.462Z,70.30
2019-01-04T03:39:37.762Z,72.00
2019-01-04T03:41:30.367Z,68.10
2019-01-04T03:42:29.786Z,63.20
2019-01-04T03:44:22.485Z,61.50
2019-01-04T03:45:22.439Z,66.50
2019-01-04T03:47:15.121Z,66.70
2019-01-04T03:48:14.447Z,67.10
2019-01-04T03:50:07.151Z,62.50
2019-01-04T03:51:07.123Z,62.50
2019-01-04T03:52:58.905Z,58.20
2019-01-04T03:53:58.704Z,62.20
2019-01-04T03:55:51.415Z,63.30
2019-01-04T03:56:51.006Z,63.50
2019-01-04T03:58:43.628Z,61.30
2019-01-04T03:59:43.376Z,62.80
2019-01-04T04:01:35.725Z,57.10
2019-01-04T04:02:35.720Z,61.80
2019-01-04T04:04:28.614Z,62.20
2019-01-04T04:05:28.031Z,55.90
2019-01-04T04:07:20.792Z,61.70
2019-01-04T04:08:20.777Z,57.60
2019-01-04T04:10:13.963Z,57.00
2019-01-04T04:11:13.741Z,57.80
2019-01-04T04:13:06.182Z,59.10
2019-01-04T04:14:06.031Z,60.70
2019-01-04T04:15:58.922Z,56.30
2019-01-04T04:16:58.357Z,54.70
2019-01-04T04:18:50.702Z,54.20
2019-01-04T04:19:50.697Z,54.50
2019-01-04T04:21:43.617Z,64.50
2019-01-04T04:22:43.389Z,57.80
2019-01-04T04:24:35.460Z,53.40
2019-01-04T04:25:35.756Z,52.20
2019-01-04T04:27:28.321Z,53.40
2019-01-04T04:28:28.080Z,54.60
2019-01-04T04:30:20.073Z,56.30
2019-01-04T04:31:20.041Z,54.90
2019-01-04T04:33:12.925Z,51.50
2019-01-04T04:34:12.393Z,49.90
2019-01-04T04:36:05.100Z,53.50
2019-01-04T04:37:04.687Z,53.00
2019-01-04T04:38:57.591Z,48.90
2019-01-04T04:39:57.053Z,50.10
2019-01-04T04:41:49.490Z,48.70
2019-01-04T04:42:49.388Z,48.30
2019-01-04T04:44:41.944Z,51.60
2019-01-04T04:45:42.068Z,49.70
2019-01-04T04:47:34.096Z,51.70
2019-01-04T04:48:34.065Z,51.80
2019-01-04T04:50:26.972Z,48.50
2019-01-04T04:51:26.721Z,49.10
2019-01-04T04:53:18.725Z,52.10
2019-01-04T04:54:19.085Z,44.00
2019-01-04T04:56:11.665Z,47.10
2019-01-04T04:57:11.059Z,45.80
2019-01-04T04:59:03.926Z,46.80
2019-01-04T05:00:03.873Z,46.40
2019-01-04T05:01:56.527Z,44.20
2019-01-04T05:02:56.566Z,46.90
2019-01-04T05:04:48.563Z,44.00
2019-01-04T05:05:48.581Z,41.80
2019-01-04T05:07:41.507Z,43.00
2019-01-04T05:08:40.912Z,40.70
2019-01-04T05:10:33.580Z,40.60
2019-01-04T05:11:33.553Z,37.60
2019-01-04T05:13:25.782Z,40.50
2019-01-04T05:14:25.584Z,39.40
2019-01-04T05:16:18.258Z,37.90
2019-01-04T05:17:17.928Z,38.20
2019-01-04T05:19:10.434Z,36.10
2019-01-04T05:20:10.610Z,38.20
2019-01-04T05:22:02.919Z,35.10
2019-01-04T05:23:02.601Z,32.10
2019-01-04T05:24:55.127Z,34.90
2019-01-04T05:25:54.898Z,34.50
2019-01-04T05:27:47.630Z,30.10
2019-01-04T05:28:47.233Z,34.80
2019-01-04T05:30:40.139Z,32.40
2019-01-04T05:31:39.552Z,30.30
2019-01-04T05:33:32.268Z,31.20
2019-01-04T05:34:31.921Z,29.00
2019-01-04T05:36:27.554Z,30.00
2019-01-04T05:38:54.791Z,27.30
2019-01-04T05:39:54.809Z,27.70
2019-01-04T05:41:47.691Z,27.50
2019-01-04T05:42:47.109Z,26.60
2019-01-04T05:44:39.787Z,28.20
2019-01-04T05:45:39.452Z,27.80
2019-01-04T05:47:32.367Z,26.10
2019-01-04T05:48:32.168Z,26.80
2019-01-04T05:50:24.461Z,25.80
2019-01-04T05:51:24.484Z,26.60
2019-01-04T05:53:17.019Z,22.20
2019-01-04T05:54:16.802Z,21.20
2019-01-04T05:56:08.314Z,23.20
2019-01-04T05:57:08.314Z,23.60
2019-01-04T05:59:01.190Z,22.60
2019-01-04T06:00:01.020Z,23.40
2019-01-04T06:01:53.015Z,21.00
2019-01-04T06:02:53.915Z,20.20
2019-01-04T06:04:45.905Z,23.30
2019-01-04T06:07:38.573Z,24.10
2019-01-04T06:08:37.983Z,20.80
2019-01-04T06:10:30.656Z,20.20
2019-01-04T06:11:29.998Z,21.30
2019-01-04T06:13:22.782Z,20.60
2019-01-04T06:15:53.908Z,21.40
2019-01-04T06:16:53.688Z,19.10
2019-01-04T06:18:46.052Z,21.30
2019-01-04T06:19:46.058Z,18.00
2019-01-04T06:21:38.227Z,21.60
2019-01-04T06:22:38.096Z,17.20
2019-01-04T06:24:30.809Z,17.70
2019-01-04T06:25:30.731Z,18.40
2019-01-04T06:27:22.892Z,17.90
2019-01-04T06:28:23.007Z,19.00
2019-01-04T06:30:15.011Z,17.60
2019-01-04T06:31:14.993Z,19.30
2019-01-04T06:33:13.518Z,18.70
2019-01-04T06:34:07.672Z,17.90
2019-01-04T06:36:00.017Z,16.50
2019-01-04T06:36:59.690Z,17.90
2019-01-04T06:38:52.597Z,15.00
2019-01-04T06:39:52.364Z,15.30
2019-01-04T06:41:44.328Z,16.50
2019-01-04T06:42:44.307Z,15.70
2019-01-04T06:44:37.227Z,14.30
2019-01-04T06:45:37.030Z,17.40
2019-01-04T06:47:28.529Z,16.10
2019-01-04T06:48:28.861Z,16.90
2019-01-04T06:50:21.543Z,16.20
2019-01-04T06:51:21.177Z,15.60
2019-01-04T06:53:13.154Z,14.60
2019-01-04T06:54:13.131Z,13.90
2019-01-04T06:56:06.173Z,13.50
2019-01-04T06:57:05.460Z,14.10
2019-01-04T06:58:57.795Z,15.00
2019-01-04T06:59:58.140Z,15.80
2019-01-04T07:01:50.710Z,13.20
2019-01-04T07:02:50.477Z,14.10
2019-01-04T07:04:42.454Z,13.80
2019-01-04T07:05:42.769Z,12.70
2019-01-04T07:07:34.971Z,11.50
2019-01-04T07:08:34.769Z,12.50
2019-01-04T07:10:27.100Z,12.50
2019-01-04T07:11:27.462Z,11.90
2019-01-04T07:13:20.005Z,12.90
2019-01-04T07:14:19.801Z,12.00
2019-01-04T07:16:13.228Z,10.00
2019-01-04T07:17:12.380Z,11.80
2019-01-04T07:19:04.908Z,10.60
2019-01-04T07:20:05.025Z,11.70
2019-01-04T07:21:57.399Z,10.50
2019-01-04T07:22:57.406Z,11.70
2019-01-04T07:24:49.647Z,10.40
2019-01-04T07:25:49.402Z,11.10
2019-01-04T07:27:41.696Z,10.30
2019-01-04T07:28:42.040Z,10.20
2019-01-04T07:30:34.637Z,11.60
2019-01-04T07:31:34.053Z,9.70
2019-01-04T07:33:26.725Z,11.70
2019-01-04T07:34:26.711Z,12.80
2019-01-04T07:36:19.324Z,11.00
2019-01-04T07:37:18.770Z,11.60
2019-01-04T07:39:11.434Z,10.90
2019-01-04T07:40:11.098Z,11.40
2019-01-04T07:42:04.003Z,10.30
2019-01-04T07:43:03.416Z,11.80
2019-01-04T07:44:55.780Z,8.70
2019-01-04T07:45:55.775Z,9.20
2019-01-04T07:47:48.660Z,10.50
2019-01-04T07:48:48.419Z,12.20
2019-01-04T07:50:40.801Z,10.60
2019-01-04T07:51:40.434Z,11.10
2019-01-04T07:53:33.349Z,10.70
2019-01-04T07:54:32.758Z,10.90
2019-01-04T07:56:25.452Z,14.80
2019-01-04T07:57:25.038Z,14.70
2019-01-04T07:59:18.048Z,15.10
2019-01-04T08:00:17.780Z,14.50
2019-01-04T08:02:11.949Z,14.60
2019-01-04T08:03:11.931Z,13.20
2019-01-04T08:05:04.464Z,15.40
2019-01-04T08:06:04.270Z,15.00
2019-01-04T08:07:56.561Z,13.40
2019-01-04T08:08:56.610Z,16.50
2019-01-04T08:10:49.445Z,14.30
2019-01-04T08:11:49.256Z,14.50
2019-01-04T08:13:41.261Z,12.80
2019-01-04T08:14:41.218Z,14.60
2019-01-04T08:16:33.878Z,16.10
2019-01-04T08:17:33.575Z,12.70
2019-01-04T08:19:26.225Z,15.00
2019-01-04T08:20:26.248Z,15.60
2019-01-04T08:22:18.519Z,14.50
2019-01-04T08:23:18.604Z,13.60
2019-01-04T08:25:10.900Z,14.50
2019-01-04T08:26:10.532Z,12.90
2019-01-04T08:28:04.068Z,14.60
2019-01-04T08:30:55.252Z,15.40
2019-01-04T08:31:55.541Z,16.20
2019-01-04T08:33:48.146Z,14.40
2019-01-04T08:34:47.921Z,15.30
2019-01-04T08:36:40.347Z,15.20
2019-01-04T08:37:40.266Z,15.90
2019-01-04T08:41:03.855Z,17.10
2019-01-04T08:42:03.632Z,13.30
2019-01-04T08:43:56.610Z,16.20
2019-01-04T08:44:55.765Z,16.70
2019-01-04T08:46:48.320Z,14.60
2019-01-04T08:47:48.471Z,13.50
2019-01-04T08:49:40.793Z,12.60
2019-01-04T08:50:40.804Z,11.70
2019-01-04T08:52:33.074Z,16.40
2019-01-04T08:53:32.751Z,15.10
2019-01-04T08:55:25.141Z,16.00
2019-01-04T08:56:25.459Z,16.90
2019-01-04T08:58:17.694Z,14.50
2019-01-04T08:59:17.461Z,15.60
2019-01-04T09:01:09.807Z,18.00
2019-01-04T09:02:10.371Z,17.70
2019-01-04T09:04:02.725Z,15.70
2019-01-04T09:05:02.476Z,15.20
2019-01-04T09:06:54.864Z,16.30
2019-01-04T09:07:54.540Z,15.00
2019-01-04T09:09:47.489Z,14.20
2019-01-04T09:10:47.246Z,15.60
2019-01-04T09:12:39.233Z,17.50
2019-01-04T09:13:39.557Z,16.80
2019-01-04T09:15:32.525Z,13.90
2019-01-04T09:16:31.568Z,13.20
2019-01-04T09:18:23.896Z,14.00
2019-01-04T09:19:24.251Z,14.50
2019-01-04T09:21:16.809Z,16.00
2019-01-04T09:22:16.222Z,17.50
2019-01-04T09:24:09.203Z,15.20
2019-01-04T09:25:08.911Z,15.20
2019-01-04T09:27:01.496Z,18.30
2019-01-04T09:28:01.258Z,17.10
2019-01-04T09:29:53.602Z,14.90
2019-01-04T09:30:53.597Z,15.30
2019-01-04T09:32:46.747Z,17.10
2019-01-04T09:33:45.542Z,16.70
2019-01-04T09:35:38.249Z,16.40
2019-01-04T09:36:37.883Z,18.40
2019-01-04T09:38:30.801Z,14.70
2019-01-04T09:39:30.589Z,17.00
2019-01-04T09:41:22.071Z,16.30
2019-01-04T09:42:22.430Z,18.20
2019-01-04T09:44:15.000Z,15.10
2019-01-04T09:45:14.737Z,17.20
2019-01-04T09:47:06.609Z,17.90
2019-01-04T09:48:06.270Z,15.90
2019-01-04T09:49:59.179Z,17.10
2019-01-04T09:50:58.948Z,16.00
2019-01-04T09:52:51.238Z,15.80
2019-01-04T09:53:50.927Z,16.70
2019-01-04T09:55:43.482Z,15.90
2019-01-04T09:56:43.218Z,15.70
2019-01-04T09:58:35.943Z,16.30
2019-01-04T09:59:35.590Z,19.10
2019-01-04T10:01:28.460Z,14.50
2019-01-04T10:02:28.271Z,16.10
2019-01-04T10:04:20.612Z,15.40
2019-01-04T10:05:20.607Z,15.20
2019-01-04T10:07:13.165Z,15.00
2019-01-04T10:08:12.894Z,14.60
2019-01-04T10:10:04.891Z,19.20
2019-01-04T10:11:05.238Z,17.10
2019-01-04T10:12:57.767Z,19.70
2019-01-04T10:13:57.542Z,17.40
2019-01-04T10:15:49.912Z,18.40
2019-01-04T10:16:49.891Z,19.40
2019-01-04T10:18:42.133Z,17.10
2019-01-04T10:19:41.873Z,17.60
2019-01-04T10:21:34.120Z,16.40
2019-01-04T10:22:34.127Z,15.20
2019-01-04T10:24:26.681Z,17.20
2019-01-04T10:25:26.453Z,16.60
2019-01-04T10:27:18.765Z,19.20
2019-01-04T10:28:18.770Z,18.60
2019-01-04T10:30:10.991Z,17.80
2019-01-04T10:31:11.108Z,16.80
2019-01-04T10:33:03.088Z,15.30
2019-01-04T10:34:03.436Z,15.50
2019-01-04T10:35:55.681Z,20.10
2019-01-04T10:36:55.439Z,17.10
2019-01-04T10:38:47.751Z,19.40
2019-01-04T10:39:47.730Z,18.30
2019-01-04T10:41:40.670Z,17.60
2019-01-04T10:42:40.461Z,16.50
2019-01-04T10:44:32.823Z,18.60
2019-01-04T10:45:32.408Z,19.70
2019-01-04T10:47:24.975Z,17.30
2019-01-04T10:48:25.097Z,18.30
2019-01-04T10:50:17.461Z,16.60
2019-01-04T10:51:17.418Z,17.60
2019-01-04T10:53:09.151Z,19.80
2019-01-04T10:54:08.953Z,17.80
2019-01-04T10:56:01.624Z,19.10
2019-01-04T10:57:01.629Z,21.10
2019-01-04T10:58:54.124Z,20.50
2019-01-04T10:59:53.902Z,21.00
2019-01-04T11:01:46.305Z,19.40
2019-01-04T11:02:45.914Z,18.30
2019-01-04T11:04:38.356Z,18.80
2019-01-04T11:05:37.768Z,22.60
2019-01-04T11:07:30.485Z,21.40
2019-01-04T11:08:30.095Z,22.90
2019-01-04T11:10:23.007Z,26.20
2019-01-04T11:11:22.453Z,26.80
2019-01-04T11:13:14.799Z,27.00
2019-01-04T11:14:15.146Z,27.70
2019-01-04T11:16:06.830Z,32.90
2019-01-04T11:17:06.626Z,35.90
2019-01-04T11:18:59.927Z,32.50
2019-01-04T11:19:59.604Z,32.90
2019-01-04T11:21:52.152Z,40.30
2019-01-04T11:22:51.894Z,39.00
2019-01-04T11:24:44.571Z,41.00
2019-01-04T11:25:44.251Z,51.50
2019-01-04T11:27:36.823Z,48.50
2019-01-04T11:28:36.543Z,48.00
2019-01-04T11:30:28.891Z,54.80
2019-01-04T11:31:29.238Z,51.80
2019-01-04T11:33:21.854Z,51.10
2019-01-04T11:34:21.608Z,54.60
2019-01-04T11:36:13.939Z,53.10
2019-01-04T11:37:13.607Z,51.80
2019-01-04T11:39:06.171Z,56.10
2019-01-04T11:40:06.249Z,56.30
2019-01-04T11:41:58.139Z,57.50
2019-01-04T11:42:58.099Z,61.20
2019-01-04T11:44:50.717Z,65.30
2019-01-04T11:45:50.123Z,64.50
2019-01-04T11:47:42.558Z,65.10
2019-01-04T11:48:42.427Z,65.70
2019-01-04T11:50:35.323Z,66.70
2019-01-04T11:51:35.151Z,62.60
2019-01-04T11:53:27.457Z,66.00
2019-01-04T11:54:27.423Z,68.50
2019-01-04T11:56:19.678Z,74.20
2019-01-04T11:57:19.492Z,73.70
2019-01-04T11:59:12.147Z,71.10
2019-01-04T12:00:12.137Z,78.70
2019-01-04T12:02:04.386Z,70.80
2019-01-04T12:03:04.159Z,74.80
2019-01-04T12:04:56.464Z,71.90
2019-01-04T12:05:56.451Z,68.70
2019-01-04T12:07:49.033Z,73.20
2019-01-04T12:08:48.809Z,70.80
2019-01-04T12:10:41.475Z,74.40
2019-01-04T12:11:41.130Z,77.10
2019-01-04T12:13:34.277Z,82.20
2019-01-04T12:14:33.434Z,78.70
2019-01-04T12:16:26.153Z,75.20
2019-01-04T12:17:25.796Z,76.90
2019-01-04T12:19:18.703Z,74.90
2019-01-04T12:20:18.118Z,77.60
2019-01-04T12:22:10.787Z,77.70
2019-01-04T12:23:11.235Z,75.10
2019-01-04T12:25:03.013Z,74.60
2019-01-04T12:26:03.119Z,77.40
2019-01-04T12:27:55.451Z,76.40
2019-01-04T12:28:55.068Z,75.90
2019-01-04T12:30:47.649Z,72.70
2019-01-04T12:31:47.757Z,70.20
2019-01-04T12:33:39.775Z,75.10
2019-01-04T12:34:39.761Z,69.60
2019-01-04T12:36:32.390Z,75.20
2019-01-04T12:37:32.411Z,74.80
2019-01-04T12:39:24.399Z,73.10
2019-01-04T12:40:24.770Z,73.50
2019-01-04T12:42:17.329Z,70.30
2019-01-04T12:43:16.732Z,74.50
2019-01-04T12:45:09.044Z,72.80
2019-01-04T12:46:09.377Z,74.10
2019-01-04T12:48:02.954Z,73.10
2019-01-04T12:49:02.744Z,74.10
2019-01-04T12:50:54.687Z,72.50
2019-01-04T12:51:55.042Z,67.30
2019-01-04T12:53:47.605Z,71.20
2019-01-04T12:54:47.010Z,72.80
2019-01-04T12:56:39.348Z,65.20
2019-01-04T12:57:39.322Z,67.10
2019-01-04T12:59:32.248Z,72.10
2019-01-04T13:00:31.688Z,72.50
2019-01-04T13:02:24.388Z,74.00
2019-01-04T13:03:24.012Z,71.10
2019-01-04T13:05:16.558Z,66.00
2019-01-04T13:06:16.341Z,70.90
2019-01-04T13:08:08.635Z,70.90
2019-01-04T13:09:09.029Z,75.60
2019-01-04T13:11:01.203Z,69.40
2019-01-04T13:12:00.951Z,69.10
2019-01-04T13:13:53.299Z,71.10
2019-01-04T13:14:53.287Z,70.20
2019-01-04T13:16:46.217Z,71.20
2019-01-04T13:17:45.658Z,68.10
2019-01-04T13:19:38.523Z,67.90
2019-01-04T13:20:38.499Z,68.40
2019-01-04T13:22:31.385Z,69.20
2019-01-04T13:23:30.864Z,67.40
2019-01-04T13:25:23.180Z,68.90
2019-01-04T13:26:23.154Z,68.40
2019-01-04T13:28:15.748Z,72.90
2019-01-04T13:29:15.863Z,75.20
2019-01-04T13:31:08.470Z,65.30
2019-01-04T13:32:08.210Z,64.60
2019-01-04T13:34:00.361Z,70.40
2019-01-04T13:35:00.237Z,63.40
2019-01-04T13:36:52.493Z,65.50
2019-01-04T13:37:52.870Z,70.00
2019-01-04T13:39:45.073Z,70.30
2019-01-04T13:40:45.171Z,66.90
2019-01-04T13:42:37.142Z,66.60
2019-01-04T13:43:37.502Z,71.90
2019-01-04T13:45:29.686Z,69.80
2019-01-04T13:46:29.849Z,68.60
2019-01-04T13:48:21.351Z,71.20
2019-01-04T13:49:21.640Z,67.70
2019-01-04T13:51:13.896Z,67.80
2019-01-04T13:52:14.005Z,71.40
2019-01-04T13:54:06.007Z,74.40
2019-01-04T13:55:06.346Z,72.10
2019-01-04T13:56:58.532Z,68.90
2019-01-04T13:57:58.282Z,67.80
2019-01-04T13:59:51.005Z,67.00
2019-01-04T14:00:50.614Z,73.00
2019-01-04T14:02:43.640Z,71.40
2019-01-04T14:03:42.965Z,69.70
2019-01-04T14:05:35.310Z,69.00
2019-01-04T14:06:35.660Z,70.00
2019-01-04T14:08:27.404Z,68.80
2019-01-04T14:09:27.132Z,67.70
2019-01-04T14:11:19.835Z,73.70
2019-01-04T14:12:19.485Z,73.20
2019-01-04T14:14:12.364Z,67.60
2019-01-04T14:15:11.773Z,69.50
2019-01-04T14:17:04.117Z,69.70
2019-01-04T14:18:04.464Z,73.30
2019-01-04T14:19:57.055Z,70.40
2019-01-04T14:20:56.465Z,68.00
2019-01-04T14:22:48.783Z,65.90
2019-01-04T14:23:49.160Z,73.20
2019-01-04T14:25:41.696Z,67.60
2019-01-04T14:26:41.439Z,70.00
2019-01-04T14:28:33.433Z,67.80
2019-01-04T14:29:33.470Z,71.70
2019-01-04T14:31:26.369Z,71.50
2019-01-04T14:32:26.134Z,69.30
2019-01-04T14:34:18.512Z,74.90
2019-01-04T14:35:18.139Z,73.80
2019-01-04T14:37:10.676Z,70.00
2019-01-04T14:38:10.796Z,75.90
2019-01-04T14:40:03.193Z,69.30
2019-01-04T14:41:03.161Z,72.50
2019-01-04T14:42:54.900Z,71.80
2019-01-04T14:43:54.632Z,72.50
2019-01-04T14:45:47.317Z,73.00
2019-01-04T14:46:47.351Z,75.90
2019-01-04T14:48:39.529Z,71.00
2019-01-04T14:49:39.319Z,71.80
2019-01-04T14:51:31.982Z,75.70
2019-01-04T14:52:31.969Z,73.90
2019-01-04T14:54:24.190Z,75.00
2019-01-04T14:55:23.944Z,73.70
2019-01-04T14:57:16.283Z,75.40
2019-01-04T14:58:16.619Z,73.00
2019-01-04T15:00:09.197Z,72.80
2019-01-04T15:01:08.973Z,71.60
2019-01-04T15:03:01.281Z,77.30
2019-01-04T15:04:01.299Z,74.80
2019-01-04T15:05:53.883Z,70.10
2019-01-04T15:06:53.244Z,74.40
2019-01-04T15:08:45.603Z,80.30
2019-01-04T15:09:45.936Z,73.10
2019-01-04T15:11:38.114Z,79.20
2019-01-04T15:12:37.947Z,84.20
2019-01-04T15:14:30.608Z,77.70
2019-01-04T15:15:30.273Z,79.60
2019-01-04T15:17:23.160Z,80.30
2019-01-04T15:18:22.935Z,77.20
2019-01-04T15:20:16.064Z,74.70
2019-01-04T15:21:16.016Z,78.60
2019-01-04T15:23:08.203Z,81.50
2019-01-04T15:24:08.358Z,80.60
2019-01-04T15:26:00.668Z,82.80
2019-01-04T15:27:00.323Z,78.70
2019-01-04T15:28:53.251Z,78.00
2019-01-04T15:29:52.983Z,80.10
2019-01-04T15:31:45.009Z,77.80
2019-01-04T15:32:45.380Z,76.60
2019-01-04T15:34:37.911Z,79.70
2019-01-04T15:35:37.303Z,79.40
2019-01-04T15:37:29.647Z,79.70
2019-01-04T15:38:36.038Z,80.40
2019-01-04T15:40:22.208Z,87.00
2019-01-04T15:41:22.326Z,81.00
2019-01-04T15:43:14.688Z,83.40
2019-01-04T15:44:14.301Z,80.40
2019-01-04T15:46:06.357Z,78.40
2019-01-04T15:47:06.520Z,85.80
2019-01-04T15:48:58.499Z,85.80
2019-01-04T15:49:58.518Z,86.50
2019-01-04T15:51:51.029Z,87.90
2019-01-04T15:52:51.143Z,92.20
2019-01-04T15:54:43.197Z,93.70
2019-01-04T15:55:43.484Z,92.00
2019-01-04T15:57:35.732Z,88.90
2019-01-04T15:58:35.511Z,90.10
2019-01-04T16:00:27.834Z,91.80
2019-01-04T16:01:27.809Z,91.70
2019-01-04T16:03:20.368Z,91.60
2019-01-04T16:04:20.527Z,95.50
2019-01-04T16:06:12.838Z,93.10
2019-01-04T16:07:12.500Z,97.40
2019-01-04T16:09:05.011Z,95.90
2019-01-04T16:10:05.145Z,99.70
2019-01-04T16:11:57.129Z,98.60
2019-01-04T16:12:57.157Z,100.30
2019-01-04T16:14:49.664Z,102.90
2019-01-04T16:15:49.433Z,99.90
2019-01-04T16:17:42.136Z,102.60
2019-01-04T16:18:41.760Z,92.80
2019-01-04T16:20:34.332Z,103.10
2019-01-04T16:21:34.510Z,100.90
2019-01-04T16:23:26.469Z,102.10
2019-01-04T16:24:26.845Z,100.90
2019-01-04T16:26:19.327Z,102.80
2019-01-04T16:27:18.781Z,97.90
2019-01-04T16:29:11.164Z,104.70
2019-01-04T16:30:11.448Z,105.70
2019-01-04T16:32:03.708Z,106.70
2019-01-04T16:33:03.822Z,107.80
2019-01-04T16:34:56.180Z,99.90
2019-01-04T16:35:56.158Z,103.40
2019-01-04T16:37:48.375Z,102.20
2019-01-04T16:38:48.127Z,103.50
2019-01-04T16:40:40.519Z,107.60
2019-01-04T16:41:40.866Z,112.00
2019-01-04T16:43:33.379Z,105.50
2019-01-04T16:44:33.123Z,104.00
2019-01-04T16:46:25.133Z,100.40
2019-01-04T16:47:25.486Z,104.40
2019-01-04T16:49:17.687Z,101.20
2019-01-04T16:50:17.490Z,104.10
2019-01-04T16:52:10.190Z,98.40
2019-01-04T16:53:10.122Z,98.90
2019-01-04T16:55:02.381Z,103.60
2019-01-04T16:56:02.510Z,100.90
2019-01-04T16:57:54.860Z,98.20
2019-01-04T16:58:54.852Z,101.50
2019-01-04T17:00:47.056Z,102.50
2019-01-04T17:01:46.825Z,101.60
2019-01-04T17:03:39.496Z,100.90
2019-01-04T17:04:39.158Z,102.40
2019-01-04T17:06:31.721Z,101.20
2019-01-04T17:07:31.453Z,100.30
2019-01-04T17:09:23.799Z,100.30
2019-01-04T17:10:23.781Z,99.90
2019-01-04T17:12:16.723Z,99.20
2019-01-04T17:13:16.469Z,105.20
2019-01-04T17:15:08.005Z,108.40
2019-01-04T17:16:08.000Z,102.90
2019-01-04T17:18:00.864Z,100.50
2019-01-04T17:19:00.284Z,103.50
2019-01-04T17:20:53.538Z,103.70
2019-01-04T17:21:53.205Z,106.10
2019-01-04T17:23:46.100Z,101.30
2019-01-04T17:24:45.520Z,104.30
2019-01-04T17:26:37.901Z,103.80
2019-01-04T17:27:38.181Z,104.80
2019-01-04T17:29:30.458Z,100.20
2019-01-04T17:30:30.214Z,95.40
2019-01-04T17:32:22.725Z,102.50
2019-01-04T17:33:22.724Z,104.10
2019-01-04T17:35:15.673Z,110.00
2019-01-04T17:36:15.441Z,98.30
2019-01-04T17:38:07.790Z,106.60
2019-01-04T17:39:07.721Z,103.80
2019-01-04T17:40:59.931Z,104.10
2019-01-04T17:42:00.049Z,105.20
2019-01-04T17:43:52.448Z,102.80
2019-01-04T17:44:52.383Z,101.70
2019-01-04T17:46:44.938Z,103.00
2019-01-04T17:47:44.755Z,105.50
2019-01-04T17:49:36.731Z,104.40
2019-01-04T17:50:36.718Z,107.90
2019-01-04T17:52:29.638Z,106.50
2019-01-04T17:53:29.070Z,107.30
2019-01-04T17:55:21.457Z,104.00
2019-01-04T17:56:21.397Z,105.30
2019-01-04T17:58:13.999Z,103.70
2019-01-04T17:59:13.737Z,105.20
2019-01-04T18:01:06.071Z,105.10
2019-01-04T18:02:06.418Z,103.40
2019-01-04T18:03:58.627Z,105.30
2019-01-04T18:04:58.716Z,107.00
2019-01-04T18:06:51.088Z,105.60
2019-01-04T18:07:50.702Z,101.50
2019-01-04T18:09:43.288Z,99.60
2019-01-04T18:10:43.035Z,101.50
2019-01-04T18:12:35.788Z,112.60
2019-01-04T18:13:35.705Z,106.30
2019-01-04T18:15:28.331Z,104.50
2019-01-04T18:16:27.714Z,106.20
2019-01-04T18:18:20.448Z,102.30
2019-01-04T18:19:20.406Z,102.80
2019-01-04T18:21:12.945Z,105.00
2019-01-04T18:22:12.712Z,115.90
2019-01-04T18:24:04.760Z,103.20
2019-01-04T18:25:04.757Z,103.50
2019-01-04T18:26:57.676Z,105.80
2019-01-04T18:27:57.088Z,101.60
2019-01-04T18:29:49.765Z,102.00
2019-01-04T18:30:49.750Z,102.10
2019-01-04T18:32:41.923Z,103.30
2019-01-04T18:33:41.730Z,105.70
2019-01-04T18:35:34.403Z,101.30
2019-01-04T18:36:34.038Z,106.60